Observation data for Aspermont on 08/14/2019      Previous  Date  Next       Current Mesonet Observations  Soil Data  Daily Summary Page  Observations in Plain Language
KASR 140500Z 05007KT 29/21 A3003 RMK A01 T02900207  RH  063%=      5-min Rain = 0
KASR 140505Z 05006KT 29/21 A3003 RMK A01 T02930207  RH  061%=      5-min Rain = 0
KASR 140510Z 04006KT 29/21 A3003 RMK A01 T02940206  RH  061%=      5-min Rain = 0
KASR 140515Z 05008KT 29/21 A3003 RMK A01 T02940205  RH  060%=      5-min Rain = 0
KASR 140520Z 06009G14KT 29/20 A3003 RMK A01 T02940204  RH  060%=      5-min Rain = 0
KASR 140525Z 05008KT 29/20 A3003 RMK A01 T02930204  RH  060%=      5-min Rain = 0
KASR 140530Z 05009G14KT 29/20 A3003 RMK A01 T02920204  RH  060%=      5-min Rain = 0
KASR 140535Z 05009KT 29/20 A3003 RMK A01 T02920203  RH  061%=      5-min Rain = 0
KASR 140540Z 05008KT 29/20 A3003 RMK A01 T02900203  RH  061%=      5-min Rain = 0
KASR 140545Z 05008KT 29/20 A3003 RMK A01 T02890202  RH  061%=      5-min Rain = 0
KASR 140550Z 05007G12KT 29/20 A3003 RMK A01 T02880202  RH  061%=      5-min Rain = 0
KASR 140555Z 06007KT 29/20 A3003 RMK A01 T02870202  RH  062%=      5-min Rain = 0
KASR 140600Z 05007KT 29/20 A3003 RMK A01 T02850201  RH  062%=      5-min Rain = 0
KASR 140605Z 05007KT 29/20 A3003 RMK A01 T02850201  RH  062%=      5-min Rain = 0
KASR 140610Z 05006KT 28/20 A3003 RMK A01 T02830201  RH  063%=      5-min Rain = 0
KASR 140615Z 05006KT 28/20 A3003 RMK A01 T02820201  RH  063%=      5-min Rain = 0
KASR 140620Z 04007KT 28/20 A3003 RMK A01 T02820201  RH  063%=      5-min Rain = 0
KASR 140625Z 05008KT 28/20 A3003 RMK A01 T02820201  RH  063%=      5-min Rain = 0
KASR 140630Z 05008KT 28/20 A3003 RMK A01 T02820202  RH  064%=      5-min Rain = 0
KASR 140635Z 05009KT 28/20 A3003 RMK A01 T02810202  RH  064%=      5-min Rain = 0
KASR 140640Z 05008G13KT 28/20 A3003 RMK A01 T02810203  RH  064%=      5-min Rain = 0
KASR 140645Z 05008KT 28/20 A3003 RMK A01 T02810203  RH  064%=      5-min Rain = 0
KASR 140650Z 05007KT 28/20 A3004 RMK A01 T02810204  RH  064%=      5-min Rain = 0
KASR 140655Z 05007KT 28/20 A3003 RMK A01 T02810204  RH  065%=      5-min Rain = 0
KASR 140700Z 06007G12KT 28/20 A3004 RMK A01 T02790203  RH  065%=      5-min Rain = 0
KASR 140705Z 06006KT 28/20 A3004 RMK A01 T02780204  RH  066%=      5-min Rain = 0
KASR 140710Z 05007KT 28/20 A3004 RMK A01 T02760204  RH  067%=      5-min Rain = 0
KASR 140715Z 04006KT 28/20 A3004 RMK A01 T02750204  RH  067%=      5-min Rain = 0
KASR 140720Z 04006KT 27/20 A3003 RMK A01 T02740204  RH  067%=      5-min Rain = 0
KASR 140725Z 04006KT 27/20 A3003 RMK A01 T02730204  RH  068%=      5-min Rain = 0
KASR 140730Z 04007KT 27/20 A3003 RMK A01 T02720203  RH  068%=      5-min Rain = 0
KASR 140735Z 04007KT 27/20 A3004 RMK A01 T02730203  RH  068%=      5-min Rain = 0
KASR 140740Z 05007KT 27/20 A3004 RMK A01 T02720203  RH  068%=      5-min Rain = 0
KASR 140745Z 05007KT 27/20 A3003 RMK A01 T02720203  RH  068%=      5-min Rain = 0
KASR 140750Z 05007KT 27/20 A3003 RMK A01 T02720203  RH  068%=      5-min Rain = 0
KASR 140755Z 05008KT 27/20 A3003 RMK A01 T02700202  RH  068%=      5-min Rain = 0
KASR 140800Z 05008KT 27/20 A3003 RMK A01 T02700202  RH  068%=      5-min Rain = 0
KASR 140805Z 04007KT 27/20 A3003 RMK A01 T02690202  RH  068%=      5-min Rain = 0
KASR 140810Z 03007KT 27/20 A3003 RMK A01 T02690201  RH  068%=      5-min Rain = 0
KASR 140815Z 03007KT 27/20 A3003 RMK A01 T02690201  RH  068%=      5-min Rain = 0
KASR 140820Z 02008KT 27/20 A3004 RMK A01 T02690202  RH  068%=      5-min Rain = 0
KASR 140825Z 02008G14KT 27/20 A3004 RMK A01 T02710202  RH  068%=      5-min Rain = 0
KASR 140830Z 02008KT 27/20 A3004 RMK A01 T02720202  RH  068%=      5-min Rain = 0
KASR 140835Z 02008G13KT 27/20 A3003 RMK A01 T02720202  RH  067%=      5-min Rain = 0
KASR 140840Z 02007KT 27/20 A3003 RMK A01 T02710201  RH  067%=      5-min Rain = 0
KASR 140845Z 04006KT 27/20 A3002 RMK A01 T02700200  RH  068%=      5-min Rain = 0
KASR 140850Z 05005KT 27/20 A3002 RMK A01 T02680199  RH  068%=      5-min Rain = 0
KASR 140855Z 04007KT 27/20 A3002 RMK A01 T02660198  RH  068%=      5-min Rain = 0
KASR 140900Z 03008G13KT 27/20 A3003 RMK A01 T02650198  RH  068%=      5-min Rain = 0
KASR 140905Z 02007G12KT 26/20 A3003 RMK A01 T02640197  RH  068%=      5-min Rain = 0
KASR 140910Z 03008KT 26/20 A3004 RMK A01 T02640197  RH  068%=      5-min Rain = 0
KASR 140915Z 03008KT 27/20 A3003 RMK A01 T02650197  RH  068%=      5-min Rain = 0
KASR 140920Z 02010G15KT 26/20 A3004 RMK A01 T02640196  RH  068%=      5-min Rain = 0
KASR 140925Z 03012G19KT 26/20 A3004 RMK A01 T02640196  RH  068%=      5-min Rain = 0
KASR 140930Z 04014G20KT 26/20 A3003 RMK A01 T02630196  RH  068%=      5-min Rain = 0
KASR 140935Z 04012G18KT 26/20 A3003 RMK A01 T02620197  RH  069%=      5-min Rain = 0
KASR 140940Z 04010G15KT 26/20 A3003 RMK A01 T02610197  RH  070%=      5-min Rain = 0
KASR 140945Z 05012G17KT 26/20 A3003 RMK A01 T02600197  RH  070%=      5-min Rain = 0
KASR 140950Z 05010G15KT 26/20 A3003 RMK A01 T02590197  RH  071%=      5-min Rain = 0
KASR 140955Z 05009G15KT 26/20 A3003 RMK A01 T02590197  RH  071%=      5-min Rain = 0
KASR 141000Z 06009G14KT 26/20 A3003 RMK A01 T02580197  RH  071%=      5-min Rain = 0
KASR 141005Z 05010G15KT 26/20 A3003 RMK A01 T02570198  RH  072%=      5-min Rain = 0
KASR 141010Z 05009G14KT 26/20 A3003 RMK A01 T02560198  RH  072%=      5-min Rain = 0
KASR 141015Z 05010G15KT 26/20 A3004 RMK A01 T02550198  RH  073%=      5-min Rain = 0
KASR 141020Z 05009G14KT 26/20 A3004 RMK A01 T02550198  RH  073%=      5-min Rain = 0
KASR 141025Z 05009G14KT 25/20 A3004 RMK A01 T02540198  RH  073%=      5-min Rain = 0
KASR 141030Z 05010G15KT 25/20 A3004 RMK A01 T02540198  RH  073%=      5-min Rain = 0
KASR 141035Z 05009G16KT 25/20 A3004 RMK A01 T02530198  RH  073%=      5-min Rain = 0
KASR 141040Z 05010KT 25/20 A3005 RMK A01 T02530199  RH  074%=      5-min Rain = 0
KASR 141045Z 04008G14KT 25/20 A3005 RMK A01 T02530199  RH  074%=      5-min Rain = 0
KASR 141050Z 04011KT 25/20 A3006 RMK A01 T02520200  RH  075%=      5-min Rain = 0
KASR 141055Z 03010KT 25/20 A3006 RMK A01 T02510200  RH  075%=      5-min Rain = 0
KASR 141100Z 04008G13KT 25/20 A3006 RMK A01 T02510200  RH  075%=      5-min Rain = 0
KASR 141105Z 03009KT 25/20 A3007 RMK A01 T02490200  RH  076%=      5-min Rain = 0
KASR 141110Z 04008KT 25/20 A3007 RMK A01 T02490200  RH  076%=      5-min Rain = 0
KASR 141115Z 03008KT 25/20 A3007 RMK A01 T02490201  RH  077%=      5-min Rain = 0
KASR 141120Z 04007G12KT 25/20 A3007 RMK A01 T02480202  RH  078%=      5-min Rain = 0
KASR 141125Z 04009KT 25/20 A3007 RMK A01 T02470204  RH  079%=      5-min Rain = 0
KASR 141130Z 03006KT 25/20 A3007 RMK A01 T02460204  RH  080%=      5-min Rain = 0
KASR 141135Z 03006G12KT 24/20 A3007 RMK A01 T02440203  RH  080%=      5-min Rain = 0
KASR 141140Z 03007G12KT 24/20 A3008 RMK A01 T02440204  RH  081%=      5-min Rain = 0
KASR 141145Z 02009KT 24/21 A3008 RMK A01 T02430205  RH  082%=      5-min Rain = 0
KASR 141150Z 03007KT 24/21 A3008 RMK A01 T02420206  RH  083%=      5-min Rain = 0
KASR 141155Z 03008KT 24/21 A3008 RMK A01 T02420207  RH  083%=      5-min Rain = 0
KASR 141200Z 03009G14KT 24/21 A3008 RMK A01 T02420208  RH  084%=      5-min Rain = 0
KASR 141205Z 02008G15KT 24/21 A3009 RMK A01 T02420208  RH  084%=      5-min Rain = 0
KASR 141210Z 02008G13KT 24/21 A3009 RMK A01 T02400206  RH  083%=      5-min Rain = 0
KASR 141215Z 02009KT 24/21 A3008 RMK A01 T02390205  RH  084%=      5-min Rain = 0
KASR 141220Z 03008G13KT 24/21 A3008 RMK A01 T02380205  RH  084%=      5-min Rain = 0
KASR 141225Z 03008G13KT 24/21 A3009 RMK A01 T02370206  RH  085%=      5-min Rain = 0
KASR 141230Z 03007G12KT 24/21 A3009 RMK A01 T02370205  RH  085%=      5-min Rain = 0
KASR 141235Z 03007KT 24/21 A3009 RMK A01 T02380205  RH  084%=      5-min Rain = 0
KASR 141240Z 02009KT 24/20 A301 RMK A01 T02380204  RH  084%=      5-min Rain = 0
KASR 141245Z 02009G15KT 24/20 A301 RMK A01 T02390204  RH  083%=      5-min Rain = 0
KASR 141250Z 02009G14KT 24/20 A301 RMK A01 T02400203  RH  082%=      5-min Rain = 0
KASR 141255Z 01010G16KT 24/20 A3011 RMK A01 T02410202  RH  081%=      5-min Rain = 0
KASR 141300Z 02009KT 24/20 A3011 RMK A01 T02430202  RH  080%=      5-min Rain = 0
KASR 141305Z 02008KT 24/20 A3011 RMK A01 T02430201  RH  079%=      5-min Rain = 0
KASR 141310Z 02009KT 24/20 A3011 RMK A01 T02430200  RH  079%=      5-min Rain = 0
KASR 141315Z 02007KT 24/20 A3011 RMK A01 T02430200  RH  079%=      5-min Rain = 0
KASR 141320Z 02009G14KT 24/20 A3011 RMK A01 T02440199  RH  078%=      5-min Rain = 0
KASR 141325Z 01011G17KT 24/20 A3011 RMK A01 T02440198  RH  078%=      5-min Rain = 0
KASR 141330Z 02010KT 24/20 A3011 RMK A01 T02440195  RH  076%=      5-min Rain = 0
KASR 141335Z 02010KT 24/20 A3012 RMK A01 T02440195  RH  076%=      5-min Rain = 0
KASR 141340Z 02009G15KT 24/20 A3012 RMK A01 T02440196  RH  076%=      5-min Rain = 0
KASR 141345Z 02009G16KT 25/20 A3012 RMK A01 T02480197  RH  075%=      5-min Rain = 0
KASR 141350Z 02011G16KT 25/20 A3012 RMK A01 T02530197  RH  073%=      5-min Rain = 0
KASR 141355Z 02013G18KT 25/20 A3012 RMK A01 T02520196  RH  073%=      5-min Rain = 0
KASR 141400Z 01012G17KT 25/20 A3013 RMK A01 T02510195  RH  073%=      5-min Rain = 0
KASR 141405Z 02010G15KT 25/20 A3013 RMK A01 T02530196  RH  073%=      5-min Rain = 0
KASR 141410Z 02011KT 26/20 A3013 RMK A01 T02560195  RH  071%=      5-min Rain = 0
KASR 141415Z 02010G15KT 26/19 A3013 RMK A01 T02560194  RH  071%=      5-min Rain = 0
KASR 141420Z 02011G16KT 26/19 A3013 RMK A01 T02550193  RH  070%=      5-min Rain = 0
KASR 141425Z 02009G14KT 26/19 A3014 RMK A01 T02590194  RH  069%=      5-min Rain = 0
KASR 141430Z 02010KT 26/19 A3014 RMK A01 T02600194  RH  069%=      5-min Rain = 0
KASR 141435Z 02011KT 26/19 A3014 RMK A01 T02590194  RH  069%=      5-min Rain = 0
KASR 141440Z 01009KT 26/20 A3014 RMK A01 T02620195  RH  068%=      5-min Rain = 0
KASR 141445Z 01010G15KT 27/20 A3014 RMK A01 T02660196  RH  067%=      5-min Rain = 0
KASR 141450Z 01010G15KT 27/20 A3014 RMK A01 T02690197  RH  067%=      5-min Rain = 0
KASR 141455Z 01011KT 27/20 A3014 RMK A01 T02660196  RH  067%=      5-min Rain = 0
KASR 141500Z 02009KT 27/20 A3014 RMK A01 T02700198  RH  066%=      5-min Rain = 0
KASR 141505Z 01009KT 28/20 A3014 RMK A01 T02760199  RH  065%=      5-min Rain = 0
KASR 141510Z 03008G13KT 28/20 A3014 RMK A01 T02750199  RH  065%=      5-min Rain = 0
KASR 141515Z 01008KT 28/20 A3014 RMK A01 T02750200  RH  065%=      5-min Rain = 0
KASR 141520Z 01009G14KT 28/20 A3014 RMK A01 T02760200  RH  065%=      5-min Rain = 0
KASR 141525Z 02008G13KT 28/20 A3014 RMK A01 T02800200  RH  064%=      5-min Rain = 0
KASR 141530Z 01007KT 28/20 A3014 RMK A01 T02810200  RH  063%=      5-min Rain = 0
KASR 141535Z 03008KT 29/20 A3014 RMK A01 T02860200  RH  061%=      5-min Rain = 0
KASR 141540Z 02008KT 29/20 A3014 RMK A01 T02860200  RH  061%=      5-min Rain = 0
KASR 141545Z 03008G13KT 29/20 A3014 RMK A01 T02880200  RH  061%=      5-min Rain = 0
KASR 141550Z 03007KT 29/20 A3014 RMK A01 T02870200  RH  061%=      5-min Rain = 0
KASR 141555Z 03007G12KT 29/20 A3014 RMK A01 T02900200  RH  060%=      5-min Rain = 0
KASR 141600Z 05006KT 29/20 A3014 RMK A01 T02920201  RH  060%=      5-min Rain = 0
KASR 141605Z 04008KT 30/20 A3014 RMK A01 T02960201  RH  058%=      5-min Rain = 0
KASR 141610Z 05006G12KT 30/20 A3014 RMK A01 T02970202  RH  058%=      5-min Rain = 0
KASR 141615Z 02005G10KT 30/20 A3014 RMK A01 T02970201  RH  058%=      5-min Rain = 0
KASR 141620Z 05004G9KT 30/20 A3014 RMK A01 T02990202  RH  057%=      5-min Rain = 0
KASR 141625Z 04007G13KT 30/20 A3014 RMK A01 T03020202  RH  057%=      5-min Rain = 0
KASR 141630Z 03007KT 30/20 A3014 RMK A01 T03020202  RH  056%=      5-min Rain = 0
KASR 141635Z 05004G9KT 30/20 A3013 RMK A01 T03030202  RH  056%=      5-min Rain = 0
KASR 141640Z 05007G14KT 31/20 A3013 RMK A01 T03080203  RH  055%=      5-min Rain = 0
KASR 141645Z 04005KT 31/20 A3013 RMK A01 T03060203  RH  056%=      5-min Rain = 0
KASR 141650Z 03007KT 31/20 A3013 RMK A01 T03100202  RH  054%=      5-min Rain = 0
KASR 141655Z 01006G11KT 31/20 A3013 RMK A01 T03070202  RH  055%=      5-min Rain = 0
KASR 141700Z 04006G12KT 31/20 A3012 RMK A01 T03100202  RH  054%=      5-min Rain = 0
KASR 141705Z 02008KT 31/20 A3012 RMK A01 T03060202  RH  055%=      5-min Rain = 0
KASR 141710Z 01005KT 30/20 A3012 RMK A01 T03040202  RH  056%=      5-min Rain = 0
KASR 141715Z 02008G13KT 31/20 A3012 RMK A01 T03120202  RH  054%=      5-min Rain = 0
KASR 141720Z 04005KT 31/20 A3012 RMK A01 T03130201  RH  053%=      5-min Rain = 0
KASR 141725Z 03007KT 32/20 A3011 RMK A01 T03170202  RH  052%=      5-min Rain = 0
KASR 141730Z 05006G11KT 32/20 A3011 RMK A01 T03170201  RH  052%=      5-min Rain = 0
KASR 141735Z 05009KT 32/20 A3011 RMK A01 T03180201  RH  051%=      5-min Rain = 0
KASR 141740Z 05006G11KT 32/20 A3011 RMK A01 T03210200  RH  050%=      5-min Rain = 0
KASR 141745Z 05007G12KT 32/20 A3011 RMK A01 T03210200  RH  050%=      5-min Rain = 0
KASR 141750Z 02007G15KT 32/20 A3011 RMK A01 T03190198  RH  050%=      5-min Rain = 0
KASR 141755Z 01007KT 33/20 A301 RMK A01 T03260199  RH  048%=      5-min Rain = 0
KASR 141800Z 02007G15KT 32/20 A301 RMK A01 T03230199  RH  049%=      5-min Rain = 0
KASR 141805Z 03008G13KT 33/20 A301 RMK A01 T03320198  RH  047%=      5-min Rain = 0
KASR 141810Z 03006G12KT 33/20 A301 RMK A01 T03320197  RH  046%=      5-min Rain = 0
KASR 141815Z 01007G13KT 34/20 A3009 RMK A01 T03360196  RH  045%=      5-min Rain = 0
KASR 141820Z 05010KT 34/20 A3009 RMK A01 T03380195  RH  044%=      5-min Rain = 0
KASR 141825Z 02007KT 33/19 A3009 RMK A01 T03320193  RH  045%=      5-min Rain = 0
KASR 141830Z 04006G13KT 34/20 A3008 RMK A01 T03350195  RH  045%=      5-min Rain = 0
KASR 141835Z 07006G11KT 34/20 A3008 RMK A01 T03390195  RH  044%=      5-min Rain = 0
KASR 141840Z 06007KT 34/19 A3008 RMK A01 T03390194  RH  044%=      5-min Rain = 0
KASR 141845Z 05009G16KT 34/19 A3007 RMK A01 T03390193  RH  044%=      5-min Rain = 0
KASR 141850Z 06007G12KT 34/19 A3007 RMK A01 T03360194  RH  044%=      5-min Rain = 0
KASR 141855Z 06010G16KT 34/19 A3007 RMK A01 T03380192  RH  043%=      5-min Rain = 0
KASR 141900Z 06008G13KT 34/19 A3007 RMK A01 T03390185  RH  041%=      5-min Rain = 0
KASR 141905Z 04007KT 34/19 A3006 RMK A01 T03430188  RH  041%=      5-min Rain = 0
KASR 141910Z 05008G14KT 35/19 A3007 RMK A01 T03450194  RH  042%=      5-min Rain = 0
KASR 141915Z 03006G12KT 35/19 A3007 RMK A01 T03460192  RH  042%=      5-min Rain = 0
KASR 141920Z 07009G14KT 35/19 A3007 RMK A01 T03470193  RH  041%=      5-min Rain = 0
KASR 141925Z 04005G13KT 35/19 A3007 RMK A01 T03450193  RH  042%=      5-min Rain = 0
KASR 141930Z 06011G16KT 35/19 A3007 RMK A01 T03470192  RH  041%=      5-min Rain = 0
KASR 141935Z 04007G13KT 35/19 A3007 RMK A01 T03460193  RH  042%=      5-min Rain = 0
KASR 141940Z 05007G16KT 35/19 A3006 RMK A01 T03470193  RH  042%=      5-min Rain = 0
KASR 141945Z 09006G13KT 34/19 A3005 RMK A01 T03430193  RH  042%=      5-min Rain = 0
KASR 141950Z 08010G15KT 34/19 A3005 RMK A01 T03430192  RH  042%=      5-min Rain = 0
KASR 141955Z 04009G15KT 35/19 A3005 RMK A01 T03490193  RH  041%=      5-min Rain = 0
KASR 142000Z 04008G15KT 35/19 A3005 RMK A01 T03480191  RH  041%=      5-min Rain = 0
KASR 142005Z 06009G14KT 35/19 A3005 RMK A01 T03520187  RH  039%=      5-min Rain = 0
KASR 142010Z 07005G10KT 35/19 A3004 RMK A01 T03500188  RH  039%=      5-min Rain = 0
KASR 142015Z 08007G14KT 35/19 A3004 RMK A01 T03520191  RH  040%=      5-min Rain = 0
KASR 142020Z 06010G15KT 35/19 A3003 RMK A01 T03490192  RH  041%=      5-min Rain = 0
KASR 142025Z 07010G17KT 35/19 A3003 RMK A01 T03530189  RH  039%=      5-min Rain = 0
KASR 142030Z 08008G15KT 35/19 A3003 RMK A01 T03520188  RH  039%=      5-min Rain = 0
KASR 142035Z 05009G15KT 36/19 A3003 RMK A01 T03550187  RH  038%=      5-min Rain = 0
KASR 142040Z 07011G16KT 36/18 A3002 RMK A01 T03550183  RH  037%=      5-min Rain = 0
KASR 142045Z 07009KT 35/18 A3002 RMK A01 T03530182  RH  037%=      5-min Rain = 0
KASR 142050Z 06007G12KT 36/18 A3001 RMK A01 T03560183  RH  037%=      5-min Rain = 0
KASR 142055Z 07010G16KT 36/19 A3001 RMK A01 T03560185  RH  038%=      5-min Rain = 0
KASR 142100Z 05007G14KT 36/18 A3001 RMK A01 T03570182  RH  037%=      5-min Rain = 0
KASR 142105Z 08011G17KT 35/19 A3001 RMK A01 T03540188  RH  039%=      5-min Rain = 0
KASR 142110Z 05009G16KT 36/19 A3001 RMK A01 T03550187  RH  038%=      5-min Rain = 0
KASR 142115Z 07010G16KT 35/19 A30 RMK A01 T03540186  RH  038%=      5-min Rain = 0
KASR 142120Z 08009G14KT 36/18 A30 RMK A01 T03560184  RH  037%=      5-min Rain = 0
KASR 142125Z 06007KT 36/18 A30 RMK A01 T03550182  RH  037%=      5-min Rain = 0
KASR 142130Z 05009G16KT 35/18 A30 RMK A01 T03520180  RH  037%=      5-min Rain = 0
KASR 142135Z 08009G16KT 35/18 A30 RMK A01 T03540179  RH  037%=      5-min Rain = 0
KASR 142140Z 07010G16KT 36/18 A30 RMK A01 T03550179  RH  036%=      5-min Rain = 0
KASR 142145Z 07008G13KT 35/18 A30 RMK A01 T03530179  RH  037%=      5-min Rain = 0
KASR 142150Z 07009KT 36/18 A30 RMK A01 T03570179  RH  036%=      5-min Rain = 0
KASR 142155Z 09008KT 36/18 A30 RMK A01 T03560182  RH  037%=      5-min Rain = 0
KASR 142200Z 10007G12KT 35/19 A2999 RMK A01 T03540187  RH  039%=      5-min Rain = 0
KASR 142205Z 07010G15KT 36/19 A2999 RMK A01 T03570185  RH  037%=      5-min Rain = 0
KASR 142210Z 09008KT 36/19 A2999 RMK A01 T03590185  RH  037%=      5-min Rain = 0
KASR 142215Z 08007G13KT 36/18 A2999 RMK A01 T03560184  RH  037%=      5-min Rain = 0
KASR 142220Z 06009G14KT 36/18 A2999 RMK A01 T03550179  RH  036%=      5-min Rain = 0
KASR 142225Z 07008G14KT 36/18 A2999 RMK A01 T03570181  RH  036%=      5-min Rain = 0
KASR 142230Z 07007G14KT 36/18 A2999 RMK A01 T03560184  RH  037%=      5-min Rain = 0
KASR 142235Z 07005G10KT 36/18 A2999 RMK A01 T03570184  RH  037%=      5-min Rain = 0
KASR 142240Z 04007G13KT 36/19 A2999 RMK A01 T03590185  RH  037%=      5-min Rain = 0
KASR 142245Z 05009G15KT 36/19 A2999 RMK A01 T03570185  RH  037%=      5-min Rain = 0
KASR 142250Z 04008KT 36/18 A2999 RMK A01 T03570183  RH  037%=      5-min Rain = 0
KASR 142255Z 07007G12KT 36/18 A2999 RMK A01 T03550183  RH  037%=      5-min Rain = 0
KASR 142300Z 08007KT 36/18 A2999 RMK A01 T03570182  RH  037%=      5-min Rain = 0
KASR 142305Z 07006KT 35/18 A2999 RMK A01 T03540184  RH  038%=      5-min Rain = 0
KASR 142310Z 05009G14KT 36/18 A2999 RMK A01 T03570183  RH  037%=      5-min Rain = 0
KASR 142315Z 07008KT 36/18 A2999 RMK A01 T03550180  RH  037%=      5-min Rain = 0
KASR 142320Z 07007G13KT 35/18 A2999 RMK A01 T03520181  RH  037%=      5-min Rain = 0
KASR 142325Z 06009KT 35/19 A2999 RMK A01 T03530186  RH  038%=      5-min Rain = 0
KASR 142330Z 08007KT 35/19 A2999 RMK A01 T03530187  RH  039%=      5-min Rain = 0
KASR 142335Z 06007KT 35/19 A2999 RMK A01 T03530186  RH  038%=      5-min Rain = 0
KASR 142340Z 07007G12KT 35/19 A2999 RMK A01 T03530185  RH  038%=      5-min Rain = 0
KASR 142345Z 09008G13KT 35/19 A2999 RMK A01 T03510186  RH  039%=      5-min Rain = 0
KASR 142350Z 08007KT 35/19 A2999 RMK A01 T03450185  RH  040%=      5-min Rain = 0
KASR 142355Z 07008KT 35/18 A2999 RMK A01 T03480184  RH  039%=      5-min Rain = 0
KASR 150000Z 06007KT 35/18 A2999 RMK A01 T03480183  RH  039%=      5-min Rain = 0
KASR 150005Z 08007KT 35/18 A2999 RMK A01 T03480183  RH  039%=      5-min Rain = 0
KASR 150010Z 09007G13KT 35/18 A2999 RMK A01 T03460182  RH  039%=      5-min Rain = 0
KASR 150015Z 08008KT 34/18 A2999 RMK A01 T03440183  RH  040%=      5-min Rain = 0
KASR 150020Z 07005KT 34/18 A2999 RMK A01 T03430184  RH  040%=      5-min Rain = 0
KASR 150025Z 08009KT 34/18 A2999 RMK A01 T03420184  RH  040%=      5-min Rain = 0
KASR 150030Z 09007KT 34/18 A2999 RMK A01 T03410182  RH  040%=      5-min Rain = 0
KASR 150035Z 08005KT 34/18 A2999 RMK A01 T03400182  RH  040%=      5-min Rain = 0
KASR 150040Z 07007G12KT 34/18 A2999 RMK A01 T03390183  RH  041%=      5-min Rain = 0
KASR 150045Z 07006KT 34/18 A2999 RMK A01 T03360182  RH  041%=      5-min Rain = 0
KASR 150050Z 07005KT 34/18 A30 RMK A01 T03350183  RH  042%=      5-min Rain = 0
KASR 150055Z 07007KT 33/18 A30 RMK A01 T03330182  RH  042%=      5-min Rain = 0
KASR 150100Z 06007KT 33/18 A30 RMK A01 T03310183  RH  042%=      5-min Rain = 0
KASR 150105Z 07006KT 33/18 A30 RMK A01 T03290183  RH  043%=      5-min Rain = 0
KASR 150110Z 06006KT 33/18 A3001 RMK A01 T03260182  RH  043%=      5-min Rain = 0
KASR 150115Z 06005KT 32/18 A3001 RMK A01 T03240182  RH  044%=      5-min Rain = 0
KASR 150120Z 06005KT 32/18 A3001 RMK A01 T03210182  RH  045%=      5-min Rain = 0
KASR 150125Z 07005KT 32/18 A3001 RMK A01 T03170182  RH  046%=      5-min Rain = 0
KASR 150130Z 07005KT 32/18 A3001 RMK A01 T03150183  RH  047%=      5-min Rain = 0
KASR 150135Z 08005KT 31/18 A3001 RMK A01 T03120183  RH  048%=      5-min Rain = 0
KASR 150140Z 07004KT 31/18 A3001 RMK A01 T03090184  RH  049%=      5-min Rain = 0
KASR 150145Z 07005KT 31/18 A3002 RMK A01 T03050184  RH  050%=      5-min Rain = 0
KASR 150150Z 08005KT 30/18 A3002 RMK A01 T03020184  RH  051%=      5-min Rain = 0
KASR 150155Z 08004KT 30/19 A3002 RMK A01 T02990185  RH  051%=      5-min Rain = 0
KASR 150200Z 08004KT 30/19 A3003 RMK A01 T02970185  RH  052%=      5-min Rain = 0
KASR 150205Z 07004KT 29/19 A3003 RMK A01 T02940185  RH  053%=      5-min Rain = 0
KASR 150210Z 07005KT 29/19 A3003 RMK A01 T02920185  RH  054%=      5-min Rain = 0
KASR 150215Z 08005KT 29/19 A3004 RMK A01 T02900186  RH  055%=      5-min Rain = 0
KASR 150220Z 08005KT 29/19 A3004 RMK A01 T02880186  RH  055%=      5-min Rain = 0
KASR 150225Z 08005KT 29/19 A3005 RMK A01 T02870186  RH  056%=      5-min Rain = 0
KASR 150230Z 08005KT 29/19 A3005 RMK A01 T02850187  RH  057%=      5-min Rain = 0
KASR 150235Z 08005KT 28/19 A3005 RMK A01 T02830187  RH  057%=      5-min Rain = 0
KASR 150240Z 08005KT 28/19 A3005 RMK A01 T02820187  RH  058%=      5-min Rain = 0
KASR 150245Z 08005KT 28/19 A3005 RMK A01 T02810187  RH  058%=      5-min Rain = 0
KASR 150250Z 08005KT 28/19 A3006 RMK A01 T02810187  RH  058%=      5-min Rain = 0
KASR 150255Z 08005KT 28/19 A3006 RMK A01 T02810187  RH  058%=      5-min Rain = 0
KASR 150300Z 10005KT 28/19 A3006 RMK A01 T02800187  RH  059%=      5-min Rain = 0
KASR 150305Z 09005KT 28/19 A3006 RMK A01 T02790188  RH  059%=      5-min Rain = 0
KASR 150310Z 09005KT 28/19 A3006 RMK A01 T02810188  RH  059%=      5-min Rain = 0
KASR 150315Z 09005KT 28/19 A3007 RMK A01 T02820188  RH  058%=      5-min Rain = 0
KASR 150320Z 09006KT 28/19 A3007 RMK A01 T02830189  RH  058%=      5-min Rain = 0
KASR 150325Z 09006KT 28/19 A3007 RMK A01 T02840189  RH  058%=      5-min Rain = 0
KASR 150330Z 08006KT 28/19 A3007 RMK A01 T02840189  RH  058%=      5-min Rain = 0
KASR 150335Z 08006KT 29/19 A3007 RMK A01 T02850190  RH  058%=      5-min Rain = 0
KASR 150340Z 08006KT 29/19 A3007 RMK A01 T02850190  RH  058%=      5-min Rain = 0
KASR 150345Z 09006KT 29/19 A3007 RMK A01 T02850190  RH  058%=      5-min Rain = 0
KASR 150350Z 09005KT 28/19 A3007 RMK A01 T02840190  RH  058%=      5-min Rain = 0
KASR 150355Z 09005KT 28/19 A3007 RMK A01 T02840190  RH  058%=      5-min Rain = 0
KASR 150400Z 09005KT 28/19 A3007 RMK A01 T02840190  RH  058%=      5-min Rain = 0
KASR 150405Z 09006KT 29/19 A3007 RMK A01 T02850190  RH  058%=      5-min Rain = 0
KASR 150410Z 09006KT 29/19 A3007 RMK A01 T02850190  RH  058%=      5-min Rain = 0
KASR 150415Z 09005KT 28/19 A3007 RMK A01 T02840190  RH  058%=      5-min Rain = 0
KASR 150420Z 09006KT 28/19 A3008 RMK A01 T02830190  RH  058%=      5-min Rain = 0
KASR 150425Z 09006KT 28/19 A3008 RMK A01 T02830190  RH  059%=      5-min Rain = 0
KASR 150430Z 09006KT 28/19 A3008 RMK A01 T02810190  RH  059%=      5-min Rain = 0
KASR 150435Z 09005KT 28/19 A3008 RMK A01 T02810190  RH  059%=      5-min Rain = 0
KASR 150440Z 09006KT 28/19 A3008 RMK A01 T02800190  RH  060%=      5-min Rain = 0
KASR 150445Z 09006KT 28/19 A3008 RMK A01 T02800190  RH  060%=      5-min Rain = 0
KASR 150450Z 09006KT 28/19 A3008 RMK A01 T02790190  RH  060%=      5-min Rain = 0
KASR 150455Z 09006KT 28/19 A3008 RMK A01 T02780190  RH  060%=      5-min Rain = 0

Page generated in 0.0091 seconds.